createdAt,value
2019-02-22T00:00:25.096Z,9.84
2019-02-22T00:01:25.395Z,9.84
2019-02-22T00:02:25.049Z,9.87
2019-02-22T00:05:25.008Z,9.80
2019-02-22T00:07:25.493Z,9.83
2019-02-22T00:08:24.876Z,9.78
2019-02-22T00:09:24.850Z,9.83
2019-02-22T00:10:24.839Z,9.81
2019-02-22T00:11:24.937Z,9.77
2019-02-22T00:12:24.938Z,9.81
2019-02-22T00:13:25.057Z,9.83
2019-02-22T00:14:24.760Z,9.81
2019-02-22T00:16:24.878Z,9.83
2019-02-22T00:17:24.827Z,9.80
2019-02-22T00:18:24.649Z,9.81
2019-02-22T00:19:24.638Z,9.81
2019-02-22T00:21:24.893Z,9.83
2019-02-22T00:22:24.748Z,9.81
2019-02-22T00:23:24.622Z,9.75
2019-02-22T00:24:24.538Z,9.84
2019-02-22T00:25:24.562Z,9.84
2019-02-22T00:27:24.451Z,9.77
2019-02-22T00:29:24.781Z,9.81
2019-02-22T00:30:24.612Z,9.78
2019-02-22T00:31:24.362Z,9.80
2019-02-22T00:32:25.740Z,9.78
2019-02-22T00:33:24.339Z,9.72
2019-02-22T00:35:24.958Z,9.84
2019-02-22T00:36:24.388Z,9.80
2019-02-22T00:37:24.269Z,9.80
2019-02-22T00:38:26.974Z,9.80
2019-02-22T00:40:24.208Z,9.81
2019-02-22T00:42:24.487Z,9.83
2019-02-22T00:44:24.097Z,9.85
2019-02-22T00:45:24.231Z,9.81
2019-02-22T00:46:24.313Z,9.77
2019-02-22T00:47:24.086Z,9.80
2019-02-22T00:48:24.207Z,9.75
2019-02-22T00:49:24.282Z,9.78
2019-02-22T00:51:23.931Z,9.84
2019-02-22T00:52:24.037Z,9.80
2019-02-22T00:54:23.923Z,9.83
2019-02-22T00:55:24.405Z,9.85
2019-02-22T00:57:24.175Z,9.81
2019-02-22T01:00:23.791Z,9.84
2019-02-22T01:02:23.704Z,9.75
2019-02-22T01:05:24.089Z,9.85
2019-02-22T01:06:23.697Z,9.78
2019-02-22T01:07:23.781Z,9.77
2019-02-22T01:08:23.674Z,9.80
2019-02-22T01:09:23.650Z,9.77
2019-02-22T01:10:31.280Z,9.80
2019-02-22T01:11:23.635Z,9.80
2019-02-22T01:12:23.660Z,9.80
2019-02-22T01:13:23.614Z,9.77
2019-02-22T01:15:23.559Z,9.72
2019-02-22T01:16:23.475Z,9.75
2019-02-22T01:17:24.139Z,9.80
2019-02-22T01:19:23.509Z,9.73
2019-02-22T01:20:23.413Z,9.69
2019-02-22T01:21:23.416Z,9.72
2019-02-22T01:22:23.809Z,9.69
2019-02-22T01:23:23.693Z,9.73
2019-02-22T01:24:23.329Z,9.75
2019-02-22T01:25:24.210Z,9.72
2019-02-22T01:26:23.263Z,9.69
2019-02-22T01:27:23.374Z,9.70
2019-02-22T01:28:24.483Z,9.83
2019-02-22T01:29:23.859Z,9.70
2019-02-22T01:30:23.601Z,9.81
2019-02-22T01:31:23.702Z,9.72
2019-02-22T01:32:24.019Z,9.72
2019-02-22T01:33:23.693Z,9.66
2019-02-22T01:35:23.623Z,9.70
2019-02-22T01:36:23.125Z,9.73
2019-02-22T01:37:23.118Z,9.75
2019-02-22T01:38:22.920Z,9.72
2019-02-22T01:39:22.979Z,9.67
2019-02-22T01:40:22.922Z,9.63
2019-02-22T01:41:23.170Z,9.69
2019-02-22T01:42:22.832Z,9.67
2019-02-22T01:43:22.851Z,9.66
2019-02-22T01:44:22.896Z,9.65
2019-02-22T01:45:22.756Z,9.69
2019-02-22T01:47:23.012Z,9.62
2019-02-22T01:48:22.688Z,9.65
2019-02-22T01:49:22.925Z,9.69
2019-02-22T01:50:22.647Z,9.69
2019-02-22T01:51:22.626Z,9.60
2019-02-22T01:53:22.975Z,9.60
2019-02-22T01:55:22.740Z,9.54
2019-02-22T01:59:22.882Z,9.60
2019-02-22T02:01:22.523Z,9.59
2019-02-22T02:08:22.671Z,9.57
2019-02-22T02:09:22.243Z,9.52
2019-02-22T02:10:22.246Z,9.51
2019-02-22T02:11:22.182Z,9.51
2019-02-22T02:12:22.189Z,9.44
2019-02-22T02:13:22.244Z,9.44
2019-02-22T02:14:22.322Z,9.47
2019-02-22T02:15:22.440Z,9.42
2019-02-22T02:16:22.077Z,9.45
2019-02-22T02:17:22.040Z,9.44
2019-02-22T02:18:22.139Z,9.45
2019-02-22T02:19:21.995Z,9.44
2019-02-22T02:20:22.140Z,9.47
2019-02-22T02:21:22.045Z,9.40
2019-02-22T02:22:21.990Z,9.42
2019-02-22T02:23:21.927Z,9.41
2019-02-22T02:24:21.975Z,9.40
2019-02-22T02:25:22.020Z,9.40
2019-02-22T02:26:22.113Z,9.45
2019-02-22T02:27:21.862Z,9.45
2019-02-22T02:28:22.096Z,9.42
2019-02-22T02:29:21.783Z,9.40
2019-02-22T02:30:22.161Z,9.24
2019-02-22T02:31:21.765Z,9.30
2019-02-22T02:32:21.788Z,9.29
2019-02-22T02:34:22.218Z,9.34
2019-02-22T02:36:21.633Z,9.37
2019-02-22T02:37:21.643Z,9.32
2019-02-22T02:38:21.646Z,9.29
2019-02-22T02:39:21.554Z,9.27
2019-02-22T02:40:21.843Z,9.19
2019-02-22T02:43:21.483Z,9.16
2019-02-22T02:44:21.501Z,9.26
2019-02-22T02:45:21.461Z,9.26
2019-02-22T02:46:21.721Z,9.16
2019-02-22T02:47:21.530Z,9.19
2019-02-22T02:48:21.379Z,9.14
2019-02-22T02:50:21.382Z,9.22
2019-02-22T02:51:21.292Z,9.15
2019-02-22T02:52:21.591Z,9.15
2019-02-22T02:53:21.487Z,9.12
2019-02-22T02:55:21.207Z,9.15
2019-02-22T02:57:21.227Z,9.23
2019-02-22T02:58:21.176Z,9.15
2019-02-22T03:00:21.893Z,9.12
2019-02-22T03:01:22.888Z,9.11
2019-02-22T03:03:22.349Z,9.14
2019-02-22T03:04:21.020Z,9.14
2019-02-22T03:06:21.427Z,9.11
2019-02-22T03:08:20.925Z,9.09
2019-02-22T03:09:21.393Z,9.09
2019-02-22T03:12:21.243Z,9.11
2019-02-22T03:13:20.821Z,9.14
2019-02-22T03:14:20.897Z,9.15
2019-02-22T03:15:23.736Z,9.14
2019-02-22T03:16:22.149Z,9.11
2019-02-22T03:17:21.025Z,9.16
2019-02-22T03:18:20.707Z,9.11
2019-02-22T03:19:21.077Z,9.11
2019-02-22T03:20:20.938Z,9.06
2019-02-22T03:21:21.038Z,9.09
2019-02-22T03:22:20.676Z,9.18
2019-02-22T03:23:20.703Z,9.14
2019-02-22T03:24:20.745Z,9.15
2019-02-22T03:25:20.545Z,9.14
2019-02-22T03:26:20.832Z,9.09
2019-02-22T03:28:20.518Z,9.11
2019-02-22T03:29:20.551Z,9.04
2019-02-22T03:31:20.429Z,9.12
2019-02-22T03:32:20.492Z,9.11
2019-02-22T03:34:20.820Z,9.04
2019-02-22T03:36:20.526Z,9.06
2019-02-22T03:37:20.426Z,9.08
2019-02-22T03:38:20.250Z,9.11
2019-02-22T03:39:20.340Z,9.12
2019-02-22T03:40:20.276Z,9.11
2019-02-22T03:41:31.888Z,9.08
2019-02-22T03:42:20.159Z,9.01
2019-02-22T03:43:20.315Z,9.03
2019-02-22T03:44:20.127Z,9.06
2019-02-22T03:45:20.408Z,8.99
2019-02-22T03:46:20.138Z,9.01
2019-02-22T03:47:20.202Z,9.04
2019-02-22T03:48:20.366Z,9.06
2019-02-22T03:49:20.032Z,9.04
2019-02-22T03:51:19.991Z,9.03
2019-02-22T03:52:20.121Z,9.03
2019-02-22T03:53:20.140Z,9.03
2019-02-22T03:54:20.124Z,9.01
2019-02-22T03:55:20.401Z,8.99
2019-02-22T03:56:19.982Z,8.98
2019-02-22T03:57:19.964Z,9.03
2019-02-22T03:58:19.982Z,9.01
2019-02-22T03:59:19.913Z,8.99
2019-02-22T04:02:20.147Z,8.93
2019-02-22T04:06:19.681Z,8.99
2019-02-22T04:07:19.724Z,8.96
2019-02-22T04:09:20.287Z,8.93
2019-02-22T04:14:19.452Z,8.90
2019-02-22T04:15:19.484Z,8.95
2019-02-22T04:16:19.476Z,8.95
2019-02-22T04:17:19.397Z,8.96
2019-02-22T04:18:19.426Z,8.96
2019-02-22T04:19:19.339Z,8.95
2019-02-22T04:20:19.322Z,8.96
2019-02-22T04:21:19.303Z,8.96
2019-02-22T04:22:19.675Z,8.92
2019-02-22T04:23:19.551Z,8.93
2019-02-22T04:24:25.556Z,8.93
2019-02-22T04:25:19.227Z,8.88
2019-02-22T04:26:19.194Z,8.99
2019-02-22T04:28:19.472Z,8.93
2019-02-22T04:29:19.498Z,8.92
2019-02-22T04:30:19.170Z,8.93
2019-02-22T04:31:19.091Z,8.92
2019-02-22T04:32:19.053Z,8.90
2019-02-22T04:33:19.092Z,8.92
2019-02-22T04:35:19.290Z,8.93
2019-02-22T04:36:19.032Z,8.96
2019-02-22T04:37:18.947Z,8.86
2019-02-22T04:38:18.992Z,8.89
2019-02-22T04:39:18.900Z,8.92
2019-02-22T04:40:18.881Z,8.88
2019-02-22T04:41:18.918Z,8.89
2019-02-22T04:42:22.426Z,8.93
2019-02-22T04:46:18.745Z,8.90
2019-02-22T04:47:18.749Z,8.89
2019-02-22T04:49:18.981Z,8.89
2019-02-22T04:50:18.662Z,8.95
2019-02-22T04:51:23.689Z,8.95
2019-02-22T04:53:18.595Z,8.90
2019-02-22T04:54:18.619Z,8.86
2019-02-22T04:55:18.666Z,8.86
2019-02-22T04:57:18.513Z,8.90
2019-02-22T04:58:18.855Z,8.92
2019-02-22T04:59:18.484Z,8.81
2019-02-22T05:00:18.792Z,8.89
2019-02-22T05:01:18.420Z,8.88
2019-02-22T05:02:18.398Z,8.90
2019-02-22T05:03:18.681Z,8.88
2019-02-22T05:04:18.473Z,8.89
2019-02-22T05:05:18.329Z,8.95
2019-02-22T05:06:18.395Z,8.86
2019-02-22T05:07:18.297Z,8.89
2019-02-22T05:09:18.551Z,8.83
2019-02-22T05:10:18.731Z,8.92
2019-02-22T05:13:18.202Z,8.80
2019-02-22T05:15:18.435Z,8.86
2019-02-22T05:16:18.084Z,8.86
2019-02-22T05:18:18.056Z,8.81
2019-02-22T05:19:18.069Z,8.77
2019-02-22T05:20:17.998Z,8.78
2019-02-22T05:21:18.276Z,8.86
2019-02-22T05:22:17.978Z,8.80
2019-02-22T05:23:17.924Z,8.81
2019-02-22T05:24:17.905Z,8.81
2019-02-22T05:26:17.972Z,8.77
2019-02-22T05:27:17.948Z,8.81
2019-02-22T05:28:18.223Z,8.83
2019-02-22T05:29:17.806Z,8.85
2019-02-22T05:30:17.767Z,8.93
2019-02-22T05:31:17.775Z,8.80
2019-02-22T05:32:17.980Z,8.80
2019-02-22T05:33:17.817Z,8.83
2019-02-22T05:34:17.985Z,8.78
2019-02-22T05:36:19.263Z,8.77
2019-02-22T05:37:17.773Z,8.77
2019-02-22T05:39:19.417Z,8.80
2019-02-22T05:40:19.223Z,8.78
2019-02-22T05:41:18.333Z,8.78
2019-02-22T05:42:22.792Z,8.77
2019-02-22T05:43:17.484Z,8.83
2019-02-22T05:44:17.573Z,8.78
2019-02-22T05:45:17.604Z,8.77
2019-02-22T05:47:17.690Z,8.77
2019-02-22T05:48:17.728Z,8.80
2019-02-22T05:49:17.464Z,8.70
2019-02-22T05:50:17.322Z,8.70
2019-02-22T05:51:18.114Z,8.74
2019-02-22T05:52:18.094Z,8.71
2019-02-22T05:53:18.269Z,8.72
2019-02-22T05:54:17.300Z,8.70
2019-02-22T05:55:17.232Z,8.72
2019-02-22T05:56:17.388Z,8.78
2019-02-22T05:57:17.231Z,8.67
2019-02-22T05:58:17.280Z,8.70
2019-02-22T05:59:17.504Z,8.74
2019-02-22T06:00:17.106Z,8.74
2019-02-22T06:01:17.097Z,8.63
2019-02-22T06:02:17.057Z,8.70
2019-02-22T06:03:17.041Z,8.68
2019-02-22T06:06:17.265Z,8.67
2019-02-22T06:07:16.965Z,8.71
2019-02-22T06:08:16.929Z,8.63
2019-02-22T06:09:16.971Z,8.63
2019-02-22T06:10:16.942Z,8.67
2019-02-22T06:11:16.888Z,8.65
2019-02-22T06:12:18.662Z,8.60
2019-02-22T06:14:17.107Z,8.56
2019-02-22T06:15:16.839Z,8.60
2019-02-22T06:16:17.358Z,8.62
2019-02-22T06:17:17.068Z,8.57
2019-02-22T06:18:16.735Z,8.65
2019-02-22T06:19:16.794Z,8.59
2019-02-22T06:20:16.713Z,8.59
2019-02-22T06:21:17.021Z,8.55
2019-02-22T06:22:28.741Z,8.50
2019-02-22T06:23:16.686Z,8.49
2019-02-22T06:24:16.578Z,8.55
2019-02-22T06:26:16.684Z,8.37
2019-02-22T06:28:16.488Z,8.50
2019-02-22T06:29:16.472Z,8.56
2019-02-22T06:30:16.430Z,8.49
2019-02-22T06:31:16.402Z,8.39
2019-02-22T06:32:16.411Z,8.42
2019-02-22T06:33:16.711Z,8.39
2019-02-22T06:34:16.558Z,8.42
2019-02-22T06:35:16.415Z,8.41
2019-02-22T06:36:16.426Z,8.44
2019-02-22T06:37:16.512Z,8.38
2019-02-22T06:38:16.356Z,8.37
2019-02-22T06:39:16.656Z,8.41
2019-02-22T06:40:16.345Z,8.39
2019-02-22T06:41:16.292Z,8.44
2019-02-22T06:42:16.257Z,8.37
2019-02-22T06:43:16.195Z,8.35
2019-02-22T06:44:16.135Z,8.39
2019-02-22T06:45:16.619Z,8.41
2019-02-22T06:46:16.096Z,8.37
2019-02-22T06:50:16.314Z,8.46
2019-02-22T06:52:15.957Z,8.39
2019-02-22T06:53:15.912Z,8.39
2019-02-22T06:54:15.911Z,8.39
2019-02-22T06:55:15.871Z,8.38
2019-02-22T06:56:15.845Z,8.38
2019-02-22T06:58:16.169Z,8.37
2019-02-22T06:59:15.995Z,8.41
2019-02-22T07:01:16.748Z,8.32
2019-02-22T07:02:15.733Z,8.39
2019-02-22T07:03:15.692Z,8.41
2019-02-22T07:04:16.017Z,8.39
2019-02-22T07:05:15.704Z,8.38
2019-02-22T07:06:15.636Z,8.32
2019-02-22T07:07:15.719Z,8.41
2019-02-22T07:12:15.602Z,8.32
2019-02-22T07:13:15.467Z,8.31
2019-02-22T07:14:15.825Z,8.35
2019-02-22T07:15:15.461Z,8.34
2019-02-22T07:16:15.747Z,8.46
2019-02-22T07:17:15.404Z,8.37
2019-02-22T07:19:15.328Z,8.38
2019-02-22T07:22:16.067Z,8.39
2019-02-22T07:24:16.180Z,8.37
2019-02-22T07:25:15.351Z,8.38
2019-02-22T07:27:15.237Z,8.42
2019-02-22T07:29:15.266Z,8.37
2019-02-22T07:30:15.174Z,8.32
2019-02-22T07:32:15.175Z,8.35
2019-02-22T07:33:15.256Z,8.35
2019-02-22T07:34:15.502Z,8.38
2019-02-22T07:35:15.352Z,8.47
2019-02-22T07:36:15.159Z,8.41
2019-02-22T07:37:14.943Z,8.39
2019-02-22T07:38:14.905Z,8.39
2019-02-22T07:39:26.847Z,8.35
2019-02-22T07:40:15.206Z,8.38
2019-02-22T07:41:14.913Z,8.37
2019-02-22T07:42:14.884Z,8.44
2019-02-22T07:43:14.838Z,8.34
2019-02-22T07:44:14.926Z,8.29
2019-02-22T07:45:14.823Z,8.24
2019-02-22T07:46:14.780Z,8.06
2019-02-22T07:47:15.004Z,7.98
2019-02-22T07:48:14.771Z,7.84
2019-02-22T07:49:14.717Z,7.76
2019-02-22T07:50:15.479Z,7.73
2019-02-22T07:51:14.679Z,7.84
2019-02-22T07:52:14.637Z,7.71
2019-02-22T07:53:14.989Z,7.68
2019-02-22T07:54:14.620Z,7.58
2019-02-22T07:55:14.626Z,7.52
2019-02-22T07:57:14.583Z,7.54
2019-02-22T07:58:14.643Z,7.36
2019-02-22T07:59:14.747Z,7.43
2019-02-22T08:00:15.077Z,7.36
2019-02-22T08:01:14.462Z,7.40
2019-02-22T08:02:14.479Z,7.29
2019-02-22T08:03:14.381Z,7.31
2019-02-22T08:04:14.397Z,7.25
2019-02-22T08:05:14.642Z,7.19
2019-02-22T08:06:14.274Z,7.24
2019-02-22T08:07:14.262Z,7.11
2019-02-22T08:11:14.494Z,7.01
2019-02-22T08:12:14.135Z,7.03
2019-02-22T08:13:19.797Z,7.03
2019-02-22T08:15:14.076Z,6.85
2019-02-22T08:16:14.128Z,6.96
2019-02-22T08:17:15.011Z,6.91
2019-02-22T08:18:14.097Z,6.86
2019-02-22T08:19:14.080Z,6.88
2019-02-22T08:21:14.617Z,6.93
2019-02-22T08:22:14.514Z,6.91
2019-02-22T08:23:14.177Z,6.96
2019-02-22T08:24:14.345Z,6.91
2019-02-22T08:25:13.832Z,6.88
2019-02-22T08:26:13.823Z,6.92
2019-02-22T08:27:13.799Z,6.89
2019-02-22T08:28:13.960Z,6.88
2019-02-22T08:29:14.044Z,6.85
2019-02-22T08:30:13.730Z,6.89
2019-02-22T08:31:13.701Z,6.88
2019-02-22T08:32:13.689Z,6.91
2019-02-22T08:33:13.658Z,6.89
2019-02-22T08:34:13.680Z,7.01
2019-02-22T08:35:13.909Z,7.00
2019-02-22T08:36:13.593Z,6.99
2019-02-22T08:37:13.658Z,6.91
2019-02-22T08:38:13.610Z,6.88
2019-02-22T08:39:13.573Z,6.86
2019-02-22T08:40:13.546Z,6.93
2019-02-22T08:41:13.778Z,6.97
2019-02-22T08:42:13.446Z,6.88
2019-02-22T08:43:13.415Z,6.88
2019-02-22T08:44:13.412Z,6.96
2019-02-22T08:45:13.362Z,6.92
2019-02-22T08:46:13.493Z,7.00
2019-02-22T08:47:13.628Z,6.91
2019-02-22T08:48:13.296Z,7.03
2019-02-22T08:49:13.327Z,7.04
2019-02-22T08:50:14.514Z,7.07
2019-02-22T08:51:13.236Z,7.13
2019-02-22T08:52:13.350Z,7.01
2019-02-22T08:54:13.187Z,7.00
2019-02-22T08:56:13.115Z,7.07
2019-02-22T08:57:13.108Z,7.03
2019-02-22T08:58:13.166Z,6.97
2019-02-22T08:59:13.474Z,6.82
2019-02-22T09:00:13.035Z,6.71
2019-02-22T09:01:13.337Z,6.68
2019-02-22T09:02:13.148Z,6.61
2019-02-22T09:03:12.949Z,6.56
2019-02-22T09:04:13.366Z,6.56
2019-02-22T09:05:13.370Z,6.46
2019-02-22T09:06:12.875Z,6.56
2019-02-22T09:07:12.949Z,6.40
2019-02-22T09:08:12.833Z,6.35
2019-02-22T09:09:12.815Z,6.24
2019-02-22T09:10:13.219Z,6.34
2019-02-22T09:11:13.164Z,6.25
2019-02-22T09:12:12.750Z,6.15
2019-02-22T09:13:12.802Z,6.09
2019-02-22T09:14:12.747Z,6.21
2019-02-22T09:15:12.683Z,6.18
2019-02-22T09:17:13.473Z,6.30
2019-02-22T09:18:18.907Z,6.24
2019-02-22T09:19:12.622Z,6.19
2019-02-22T09:20:12.554Z,6.42
2019-02-22T09:21:12.662Z,6.46
2019-02-22T09:22:22.435Z,6.55
2019-02-22T09:23:12.896Z,6.57
2019-02-22T09:25:12.473Z,6.73
2019-02-22T09:26:12.444Z,6.49
2019-02-22T09:27:12.414Z,6.64
2019-02-22T09:28:12.366Z,6.55
2019-02-22T09:29:12.715Z,6.61
2019-02-22T09:30:12.336Z,6.65
2019-02-22T09:31:12.342Z,6.63
2019-02-22T09:32:12.305Z,6.49
2019-02-22T09:33:12.300Z,6.42
2019-02-22T09:35:12.572Z,6.27
2019-02-22T09:36:12.206Z,6.15
2019-02-22T09:37:12.188Z,6.13
2019-02-22T09:38:12.161Z,6.13
2019-02-22T09:39:12.123Z,6.30
2019-02-22T09:40:14.704Z,6.21
2019-02-22T09:41:12.879Z,6.25
2019-02-22T09:42:12.156Z,6.19
2019-02-22T09:43:12.145Z,6.24
2019-02-22T09:44:12.186Z,6.31
2019-02-22T09:45:12.285Z,6.30
2019-02-22T09:46:12.258Z,6.32
2019-02-22T09:47:13.628Z,6.18
2019-02-22T09:48:11.954Z,6.32
2019-02-22T09:49:11.907Z,6.46
2019-02-22T09:50:11.889Z,6.38
2019-02-22T09:51:12.125Z,6.45
2019-02-22T09:52:11.858Z,6.52
2019-02-22T09:53:12.405Z,6.40
2019-02-22T09:54:11.839Z,6.35
2019-02-22T09:55:11.906Z,6.24
2019-02-22T09:56:11.978Z,6.15
2019-02-22T09:57:12.216Z,6.31
2019-02-22T09:58:11.688Z,6.42
2019-02-22T09:59:12.221Z,6.27
2019-02-22T10:00:11.660Z,6.27
2019-02-22T10:01:11.725Z,6.12
2019-02-22T10:02:12.971Z,6.24
2019-02-22T10:03:11.674Z,6.24
2019-02-22T10:04:11.754Z,6.40
2019-02-22T10:05:12.252Z,6.34
2019-02-22T10:06:11.534Z,6.37
2019-02-22T10:07:11.494Z,6.38
2019-02-22T10:08:11.760Z,6.43
2019-02-22T10:09:11.439Z,6.38
2019-02-22T10:10:11.578Z,6.40
2019-02-22T10:11:11.802Z,6.45
2019-02-22T10:12:11.368Z,6.37
2019-02-22T10:14:11.343Z,6.21
2019-02-22T10:15:11.348Z,6.11
2019-02-22T10:17:12.375Z,6.27
2019-02-22T10:18:11.341Z,6.19
2019-02-22T10:19:11.222Z,6.24
2019-02-22T10:20:11.216Z,6.37
2019-02-22T10:21:11.181Z,6.37
2019-02-22T10:22:11.259Z,6.68
2019-02-22T10:23:11.612Z,7.13
2019-02-22T10:24:11.199Z,7.86
2019-02-22T10:26:11.492Z,8.74
2019-02-22T10:28:17.723Z,10.35
2019-02-22T10:29:11.612Z,10.98
2019-02-22T10:30:11.074Z,11.43
2019-02-22T10:31:11.282Z,11.66
2019-02-22T10:32:10.999Z,11.43
2019-02-22T10:33:11.007Z,11.87
2019-02-22T10:34:10.899Z,12.14
2019-02-22T10:37:10.929Z,11.36
2019-02-22T10:38:11.720Z,11.18
2019-02-22T10:39:11.089Z,11.12
2019-02-22T10:40:10.940Z,11.27
2019-02-22T10:41:11.134Z,10.78
2019-02-22T10:42:10.769Z,10.36
2019-02-22T10:43:10.807Z,10.48
2019-02-22T10:44:17.730Z,10.61
2019-02-22T10:46:11.378Z,10.75
2019-02-22T10:48:11.028Z,10.76
2019-02-22T10:49:10.629Z,10.30
2019-02-22T10:50:10.622Z,11.13
2019-02-22T10:51:10.592Z,11.70
2019-02-22T10:52:10.669Z,12.61
2019-02-22T10:53:10.564Z,12.76
2019-02-22T10:54:10.894Z,12.47
2019-02-22T10:55:10.590Z,12.88
2019-02-22T10:56:10.508Z,13.57
2019-02-22T10:57:10.484Z,14.04
2019-02-22T10:58:10.469Z,13.63
2019-02-22T10:59:10.474Z,13.01
2019-02-22T11:00:11.086Z,12.66
2019-02-22T11:01:10.481Z,12.33
2019-02-22T11:02:10.921Z,12.51
2019-02-22T11:03:11.128Z,13.05
2019-02-22T11:04:11.929Z,13.40
2019-02-22T11:05:10.547Z,12.81
2019-02-22T11:06:10.810Z,12.71
2019-02-22T11:07:10.409Z,12.47
2019-02-22T11:08:10.332Z,12.41
2019-02-22T11:10:10.343Z,12.26
2019-02-22T11:11:10.302Z,12.71
2019-02-22T11:12:10.636Z,13.02
2019-02-22T11:13:10.316Z,12.46
2019-02-22T11:14:10.258Z,13.05
2019-02-22T11:15:10.244Z,13.19
2019-02-22T11:16:10.278Z,13.30
2019-02-22T11:17:10.273Z,13.01
2019-02-22T11:18:10.657Z,12.68
2019-02-22T11:19:10.207Z,12.72
2019-02-22T11:20:10.303Z,12.76
2019-02-22T11:21:10.174Z,12.87
2019-02-22T11:22:10.289Z,12.71
2019-02-22T11:23:10.246Z,12.63
2019-02-22T11:24:11.052Z,12.87
2019-02-22T11:25:10.430Z,12.95
2019-02-22T11:26:11.643Z,13.11
2019-02-22T11:27:10.091Z,13.38
2019-02-22T11:28:10.556Z,13.06
2019-02-22T11:32:10.556Z,13.01
2019-02-22T11:33:10.047Z,12.83
2019-02-22T11:34:10.090Z,12.65
2019-02-22T11:35:10.103Z,12.73
2019-02-22T11:36:10.136Z,12.69
2019-02-22T11:37:09.968Z,12.84
2019-02-22T11:38:10.291Z,12.68
2019-02-22T11:39:09.989Z,12.71
2019-02-22T11:40:09.908Z,12.63
2019-02-22T11:41:09.943Z,13.11
2019-02-22T11:42:09.904Z,13.35
2019-02-22T11:43:10.033Z,13.23
2019-02-22T11:44:10.220Z,13.09
2019-02-22T11:45:10.041Z,12.71
2019-02-22T11:46:10.008Z,12.69
2019-02-22T11:47:09.954Z,11.88
2019-02-22T11:48:09.883Z,12.07
2019-02-22T11:49:09.802Z,12.04
2019-02-22T11:50:10.169Z,12.62
2019-02-22T11:51:09.783Z,13.13
2019-02-22T11:52:09.940Z,13.24
2019-02-22T11:53:09.758Z,13.21
2019-02-22T11:54:09.894Z,13.49
2019-02-22T11:55:09.818Z,13.13
2019-02-22T11:56:10.214Z,13.09
2019-02-22T11:57:11.509Z,13.11
2019-02-22T11:58:10.112Z,13.24
2019-02-22T11:59:09.827Z,13.14
2019-02-22T12:00:10.157Z,13.67
2019-02-22T12:01:09.726Z,13.73
2019-02-22T12:02:10.200Z,13.78
2019-02-22T12:03:23.662Z,13.96
2019-02-22T12:04:09.618Z,13.32
2019-02-22T12:05:09.698Z,12.63
2019-02-22T12:06:09.728Z,12.61
2019-02-22T12:07:09.584Z,11.46
2019-02-22T12:08:10.240Z,11.85
2019-02-22T12:09:09.574Z,11.58
2019-02-22T12:10:09.578Z,11.28
2019-02-22T12:11:09.591Z,11.00
2019-02-22T12:14:09.655Z,10.35
2019-02-22T12:15:10.315Z,10.21
2019-02-22T12:16:09.570Z,9.94
2019-02-22T12:20:09.714Z,10.16
2019-02-22T12:21:09.390Z,11.31
2019-02-22T12:22:09.437Z,11.70
2019-02-22T12:23:09.364Z,12.30
2019-02-22T12:24:09.340Z,12.63
2019-02-22T12:27:09.549Z,13.36
2019-02-22T12:28:09.290Z,13.27
2019-02-22T12:31:09.281Z,13.42
2019-02-22T12:32:09.290Z,13.54
2019-02-22T12:34:09.505Z,13.82
2019-02-22T12:36:09.710Z,14.19
2019-02-22T12:37:09.149Z,14.51
2019-02-22T12:38:09.213Z,14.51
2019-02-22T12:39:09.229Z,14.48
2019-02-22T12:40:10.502Z,13.97
2019-02-22T12:41:09.092Z,13.45
2019-02-22T12:42:09.099Z,13.26
2019-02-22T12:43:09.126Z,13.39
2019-02-22T12:44:09.976Z,13.14
2019-02-22T12:45:09.127Z,13.45
2019-02-22T12:46:09.411Z,13.01
2019-02-22T12:47:09.029Z,13.30
2019-02-22T12:48:09.025Z,13.42
2019-02-22T12:49:09.017Z,13.63
2019-02-22T12:50:09.058Z,13.80
2019-02-22T12:51:08.959Z,13.78
2019-02-22T12:52:09.283Z,13.90
2019-02-22T12:53:08.933Z,13.72
2019-02-22T12:54:08.917Z,13.54
2019-02-22T12:55:08.995Z,13.53
2019-02-22T12:56:09.030Z,13.75
2019-02-22T12:57:09.027Z,13.83
2019-02-22T13:01:09.083Z,14.59
2019-02-22T13:02:09.116Z,14.56
2019-02-22T13:03:08.914Z,14.58
2019-02-22T13:04:09.396Z,14.87
2019-02-22T13:05:08.788Z,14.53
2019-02-22T13:06:08.813Z,14.09
2019-02-22T13:07:08.760Z,13.58
2019-02-22T13:08:08.927Z,13.67
2019-02-22T13:09:09.011Z,13.46
2019-02-22T13:11:09.159Z,13.21
2019-02-22T13:12:14.024Z,13.40
2019-02-22T13:13:08.991Z,13.54
2019-02-22T13:14:08.832Z,13.42
2019-02-22T13:15:13.946Z,13.39
2019-02-22T13:16:09.029Z,13.61
2019-02-22T13:17:08.771Z,12.88
2019-02-22T13:18:09.720Z,12.48
2019-02-22T13:19:08.929Z,12.21
2019-02-22T13:20:08.985Z,12.26
2019-02-22T13:21:08.650Z,12.46
2019-02-22T13:22:08.583Z,12.62
2019-02-22T13:23:08.627Z,12.63
2019-02-22T13:24:09.004Z,13.01
2019-02-22T13:25:09.064Z,13.38
2019-02-22T13:26:08.675Z,13.85
2019-02-22T13:27:08.518Z,13.61
2019-02-22T13:28:09.048Z,13.97
2019-02-22T13:29:08.589Z,13.23
2019-02-22T13:30:09.750Z,13.20
2019-02-22T13:31:11.045Z,13.09
2019-02-22T13:32:08.490Z,12.73
2019-02-22T13:33:08.457Z,12.98
2019-02-22T13:34:08.470Z,13.71
2019-02-22T13:37:09.679Z,13.45
2019-02-22T13:39:08.561Z,13.57
2019-02-22T13:40:08.695Z,13.54
2019-02-22T13:41:08.327Z,13.32
2019-02-22T13:42:08.307Z,13.02
2019-02-22T13:43:08.310Z,13.17
2019-02-22T13:45:08.738Z,12.80
2019-02-22T13:46:08.259Z,13.05
2019-02-22T13:47:08.252Z,13.06
2019-02-22T13:48:08.254Z,13.45
2019-02-22T13:49:08.214Z,13.61
2019-02-22T13:50:08.401Z,13.55
2019-02-22T13:51:08.259Z,13.57
2019-02-22T13:53:08.471Z,13.49
2019-02-22T13:54:08.242Z,13.60
2019-02-22T13:55:08.237Z,13.76
2019-02-22T13:56:08.143Z,13.54
2019-02-22T13:57:08.880Z,13.90
2019-02-22T13:58:08.131Z,13.61
2019-02-22T13:59:08.173Z,13.38
2019-02-22T14:00:08.620Z,13.17
2019-02-22T14:01:08.760Z,12.71
2019-02-22T14:02:08.037Z,12.87
2019-02-22T14:03:08.147Z,12.69
2019-02-22T14:04:08.015Z,12.88
2019-02-22T14:05:08.016Z,13.01
2019-02-22T14:06:08.368Z,12.50
2019-02-22T14:07:07.994Z,12.32
2019-02-22T14:08:08.231Z,12.46
2019-02-22T14:09:07.995Z,12.40
2019-02-22T14:10:07.936Z,12.29
2019-02-22T14:11:07.991Z,12.43
2019-02-22T14:12:08.229Z,12.43
2019-02-22T14:14:07.947Z,12.11
2019-02-22T14:15:07.883Z,11.99
2019-02-22T14:16:08.067Z,11.99
2019-02-22T14:17:07.940Z,12.22
2019-02-22T14:18:07.947Z,11.96
2019-02-22T14:19:08.232Z,11.97
2019-02-22T14:20:08.441Z,11.58
2019-02-22T14:22:08.336Z,11.20
2019-02-22T14:24:08.056Z,11.33
2019-02-22T14:25:08.212Z,10.90
2019-02-22T14:26:07.930Z,11.23
2019-02-22T14:28:07.884Z,11.30
2019-02-22T14:29:08.233Z,11.40
2019-02-22T14:32:07.773Z,11.20
2019-02-22T14:33:07.786Z,11.28
2019-02-22T14:35:08.121Z,11.23
2019-02-22T14:36:07.754Z,11.38
2019-02-22T14:37:08.010Z,11.40
2019-02-22T14:38:07.601Z,11.28
2019-02-22T14:39:07.533Z,11.18
2019-02-22T14:40:07.614Z,11.19
2019-02-22T14:42:07.654Z,11.12
2019-02-22T14:43:16.204Z,11.27
2019-02-22T14:44:07.579Z,11.18
2019-02-22T14:45:07.451Z,11.23
2019-02-22T14:46:07.533Z,11.27
2019-02-22T14:48:07.392Z,11.20
2019-02-22T14:49:07.467Z,11.12
2019-02-22T14:50:08.001Z,11.05
2019-02-22T14:52:07.329Z,10.43
2019-02-22T14:53:18.882Z,10.64
2019-02-22T14:54:09.283Z,10.67
2019-02-22T14:55:07.857Z,10.65
2019-02-22T14:56:09.694Z,10.49
2019-02-22T14:57:08.357Z,10.73
2019-02-22T14:58:07.292Z,10.70
2019-02-22T14:59:07.329Z,10.82
2019-02-22T15:00:07.237Z,11.13
2019-02-22T15:01:07.228Z,10.78
2019-02-22T15:03:07.866Z,10.85
2019-02-22T15:04:07.125Z,10.85
2019-02-22T15:05:09.059Z,10.73
2019-02-22T15:06:07.207Z,10.34
2019-02-22T15:08:07.073Z,10.45
2019-02-22T15:09:07.469Z,10.49
2019-02-22T15:10:07.354Z,10.31
2019-02-22T15:11:07.067Z,10.21
2019-02-22T15:12:06.995Z,9.59
2019-02-22T15:13:07.062Z,9.29
2019-02-22T15:14:06.966Z,9.37
2019-02-22T15:15:07.313Z,9.50
2019-02-22T15:16:06.985Z,9.60
2019-02-22T15:17:07.291Z,9.54
2019-02-22T15:18:06.956Z,9.73
2019-02-22T15:19:06.966Z,9.60
2019-02-22T15:20:06.919Z,9.44
2019-02-22T15:21:06.931Z,9.19
2019-02-22T15:22:06.830Z,9.23
2019-02-22T15:23:06.813Z,9.32
2019-02-22T15:24:07.374Z,9.30
2019-02-22T15:25:07.014Z,9.33
2019-02-22T15:26:07.493Z,9.36
2019-02-22T15:27:06.782Z,9.48
2019-02-22T15:28:06.761Z,9.72
2019-02-22T15:29:06.772Z,9.73
2019-02-22T15:30:06.813Z,9.80
2019-02-22T15:31:06.668Z,9.75
2019-02-22T15:32:06.705Z,9.40
2019-02-22T15:33:06.689Z,9.19
2019-02-22T15:34:06.649Z,8.80
2019-02-22T15:35:09.219Z,8.88
2019-02-22T15:37:07.054Z,8.90
2019-02-22T15:38:06.555Z,8.92
2019-02-22T15:39:07.294Z,9.12
2019-02-22T15:40:06.722Z,8.90
2019-02-22T15:41:06.878Z,8.96
2019-02-22T15:42:06.689Z,9.14
2019-02-22T15:43:06.484Z,9.29
2019-02-22T15:44:06.781Z,9.42
2019-02-22T15:45:06.482Z,9.32
2019-02-22T15:46:12.201Z,9.12
2019-02-22T15:47:11.722Z,8.59
2019-02-22T15:48:06.619Z,8.37